Time;durP1;ratioP1;P1;durP2;ratioP2;P2;SDS_P1;SDS_P2;PMS_P1;PMS_P2;Temp;Humidity;BMP_temperature;BMP_pressure;BME280_temperature;BME280_humidity;BME280_pressure;Samples;Min_cycle;Max_cycle;Signal;HPM_P1;HPM_P2
2022/07/19 00:00:27;;;;;;;5.88;2.47;;;;;;;20.01;44.11;101403.78;7397205;19;20032;-66
2022/07/19 00:02:55;;;;;;;5.43;2.50;;;;;;;19.98;43.73;101396.81;7398670;19;20025;-66
2022/07/19 00:05:25;;;;;;;4.95;2.60;;;;;;;19.96;43.69;101392.50;7398728;19;20074;-66
2022/07/19 00:07:54;;;;;;;3.47;2.45;;;;;;;19.93;43.67;101398.84;7397021;19;20018;-66
2022/07/19 00:10:23;;;;;;;5.68;2.70;;;;;;;19.92;43.95;101391.78;7398172;19;20019;-66
2022/07/19 00:12:51;;;;;;;4.68;2.22;;;;;;;19.87;43.76;101393.84;7396396;19;20022;-66
2022/07/19 00:15:22;;;;;;;3.45;1.90;;;;;;;19.86;43.80;101386.78;7397989;19;20031;-66
2022/07/19 00:17:52;;;;;;;3.65;1.88;;;;;;;19.84;43.62;101391.31;7397549;19;20036;-66
2022/07/19 00:20:23;;;;;;;4.60;2.40;;;;;;;19.82;43.37;101393.19;7395766;19;20018;-65
2022/07/19 00:22:51;;;;;;;3.60;2.30;;;;;;;19.81;43.69;101394.97;7398469;19;20083;-66
2022/07/19 00:25:20;;;;;;;4.68;2.13;;;;;;;19.81;43.67;101394.09;7396139;19;20078;-66
2022/07/19 00:27:48;;;;;;;5.18;2.30;;;;;;;19.80;43.26;101379.94;7397162;19;20074;-66
2022/07/19 00:30:17;;;;;;;4.55;2.17;;;;;;;19.78;43.68;101383.63;7398363;19;20078;-66
2022/07/19 00:32:48;;;;;;;2.72;1.90;;;;;;;19.79;43.66;101385.31;7396004;19;20039;-66
2022/07/19 00:35:17;;;;;;;5.57;2.25;;;;;;;19.77;43.66;101382.75;7397432;19;20082;-66
2022/07/19 00:37:46;;;;;;;4.57;2.38;;;;;;;19.77;43.77;101381.91;7396573;19;20022;-66
2022/07/19 00:40:15;;;;;;;4.90;2.17;;;;;;;19.75;43.76;101381.09;7395346;19;20014;-66
2022/07/19 00:42:43;;;;;;;5.63;2.50;;;;;;;19.74;43.54;101371.38;7397378;19;20022;-66
2022/07/19 00:45:13;;;;;;;5.45;3.25;;;;;;;19.73;43.95;101380.31;7397058;19;20019;-66
2022/07/19 00:47:42;;;;;;;4.00;2.53;;;;;;;19.70;44.09;101376.00;7396119;19;20014;-65
2022/07/19 00:50:13;;;;;;;6.22;2.45;;;;;;;19.68;43.90;101376.09;7397225;19;20014;-65
2022/07/19 00:52:42;;;;;;;3.17;1.90;;;;;;;19.66;44.04;101377.97;7396272;19;20019;-65
2022/07/19 00:55:12;;;;;;;4.95;2.35;;;;;;;19.64;44.48;101374.53;7397161;19;20020;-66
2022/07/19 00:57:41;;;;;;;6.50;2.53;;;;;;;19.62;44.28;101371.06;7394997;19;20035;-65
2022/07/19 01:00:12;;;;;;;3.80;2.55;;;;;;;19.59;44.17;101373.00;7396610;19;20481;-65
2022/07/19 01:02:40;;;;;;;3.55;2.00;;;;;;;19.56;44.56;101378.50;7396509;19;20481;-65
2022/07/19 01:05:19;;;;;;;3.25;2.47;;;;;;;19.51;44.29;101381.38;7394663;19;20545;-66
2022/07/19 01:07:48;;;;;;;4.07;2.00;;;;;;;19.45;44.52;101381.69;7395916;19;20066;-67
2022/07/19 01:10:18;;;;;;;4.10;2.08;;;;;;;19.44;44.25;101382.63;7396631;19;20019;-66
2022/07/19 01:12:47;;;;;;;9.60;2.47;;;;;;;19.40;44.29;101391.69;7395610;19;20018;-65
2022/07/19 01:15:18;;;;;;;3.38;1.95;;;;;;;19.36;44.73;101394.50;7394294;19;20086;-68
2022/07/19 01:17:48;;;;;;;4.07;2.00;;;;;;;19.33;44.43;101383.16;7394882;19;20023;-66
2022/07/19 01:20:19;;;;;;;4.13;2.50;;;;;;;19.30;44.54;101399.28;7395646;19;20082;-66
2022/07/19 01:23:03;;;;;;;3.45;2.10;;;;;;;19.27;44.96;101400.28;7393933;19;20502;-66
2022/07/19 01:25:34;;;;;;;2.70;2.00;;;;;;;19.25;44.75;101391.50;7394964;19;20011;-65
2022/07/19 01:28:03;;;;;;;4.68;2.03;;;;;;;19.23;45.01;101393.34;7394401;19;20026;-65
2022/07/19 01:30:32;;;;;;;4.18;2.17;;;;;;;19.22;45.11;101402.28;7395583;19;20502;-66
2022/07/19 01:33:00;;;;;;;3.47;1.73;;;;;;;19.19;45.19;101392.63;7395845;19;20376;-66
2022/07/19 01:35:29;;;;;;;4.30;1.70;;;;;;;19.16;45.41;101392.81;7394138;19;20018;-65
2022/07/19 01:38:00;;;;;;;3.58;2.30;;;;;;;19.11;45.36;101389.50;7394277;19;20477;-65
2022/07/19 01:40:29;;;;;;;3.80;2.03;;;;;;;19.08;45.67;101391.44;7393676;19;20027;-66
2022/07/19 01:42:58;;;;;;;4.70;2.30;;;;;;;19.02;46.03;101384.63;7393633;19;20368;-66
2022/07/19 01:45:26;;;;;;;4.82;2.15;;;;;;;18.98;46.48;101386.56;7393387;19;20015;-65
2022/07/19 01:47:55;;;;;;;5.10;2.00;;;;;;;18.92;46.42;101389.50;7393952;19;20090;-65
2022/07/19 01:50:23;;;;;;;5.03;2.30;;;;;;;18.86;46.69;101387.94;7393231;19;20078;-66
2022/07/19 01:52:52;;;;;;;5.00;2.22;;;;;;;18.81;47.05;101389.09;7394935;19;20018;-65
2022/07/19 01:55:23;;;;;;;3.47;2.63;;;;;;;18.76;47.13;101388.47;7393139;19;20360;-65
2022/07/19 01:57:52;;;;;;;4.70;2.40;;;;;;;18.70;47.05;101387.81;7392997;19;20084;-65
2022/07/19 02:00:21;;;;;;;6.85;2.30;;;;;;;18.67;47.51;101389.75;7393412;19;20082;-66
2022/07/19 02:02:50;;;;;;;5.93;2.00;;;;;;;18.62;47.84;101389.94;7393357;19;20022;-66
2022/07/19 02:05:18;;;;;;;2.33;1.83;;;;;;;18.58;47.47;101384.81;7399893;19;20018;-67
2022/07/19 02:07:47;;;;;;;5.88;2.40;;;;;;;18.52;47.90;101378.00;7401014;19;20031;-67
2022/07/19 02:10:15;;;;;;;4.13;2.08;;;;;;;18.46;48.21;101381.78;7399569;19;20051;-66
2022/07/19 02:12:46;;;;;;;6.90;2.58;;;;;;;18.40;48.07;101385.59;7399496;19;20074;-67
2022/07/19 02:15:15;;;;;;;9.32;2.40;;;;;;;18.36;47.96;101385.78;7399165;19;20457;-67
2022/07/19 02:17:44;;;;;;;4.20;2.50;;;;;;;18.30;48.47;101381.63;7400643;19;20494;-67
2022/07/19 02:20:13;;;;;;;6.10;2.28;;;;;;;18.27;48.86;101380.91;7403657;19;20011;-67
2022/07/19 02:22:42;;;;;;;4.90;2.53;;;;;;;18.22;48.57;101373.13;7399382;19;20010;-66
2022/07/19 02:25:11;;;;;;;7.40;1.98;;;;;;;18.18;49.15;101376.84;7399890;19;20040;-67
2022/07/19 02:27:40;;;;;;;4.65;2.50;;;;;;;18.14;49.55;101380.56;7400266;19;20078;-66
2022/07/19 02:30:12;;;;;;;6.28;2.50;;;;;;;18.08;49.52;101381.69;7401401;19;20485;-66
2022/07/19 02:32:41;;;;;;;6.07;2.78;;;;;;;18.03;49.99;101384.56;7399208;19;20018;-66
2022/07/19 02:35:11;;;;;;;5.90;2.63;;;;;;;17.99;49.71;101377.63;7398610;19;20014;-67
2022/07/19 02:37:40;;;;;;;5.68;3.03;;;;;;;17.95;50.01;101381.34;7398031;19;20035;-66
2022/07/19 02:40:10;;;;;;;3.20;2.13;;;;;;;17.91;50.07;101374.44;7398553;19;20018;-66
2022/07/19 02:42:39;;;;;;;3.88;2.20;;;;;;;17.87;50.17;101381.66;7401495;19;20025;-66
2022/07/19 02:45:11;;;;;;;5.68;2.63;;;;;;;17.83;50.67;101381.84;7398670;19;20032;-66
2022/07/19 02:47:39;;;;;;;6.45;2.47;;;;;;;17.78;50.26;101379.41;7400395;19;20375;-66
2022/07/19 02:50:09;;;;;;;3.58;2.20;;;;;;;17.74;50.50;101377.78;7398616;19;20027;-66
2022/07/19 02:52:38;;;;;;;5.28;2.70;;;;;;;17.70;50.85;101377.03;7401721;19;20015;-67
2022/07/19 02:55:07;;;;;;;4.03;2.83;;;;;;;17.65;50.76;101376.38;7401034;19;20024;-66
2022/07/19 02:57:36;;;;;;;5.30;2.60;;;;;;;17.62;50.92;101376.50;7399350;19;20015;-66
2022/07/19 03:00:06;;;;;;;11.13;3.05;;;;;;;17.59;51.58;101379.25;7400732;19;20035;-66
2022/07/19 03:02:38;;;;;;;3.20;2.45;;;;;;;17.54;51.57;101373.28;7400191;19;20362;-67
2022/07/19 03:05:08;;;;;;;5.90;2.60;;;;;;;17.50;51.86;101375.22;7401397;19;20022;-67
2022/07/19 03:07:36;;;;;;;6.20;2.80;;;;;;;17.45;51.79;101373.69;7399000;19;20384;-67
2022/07/19 03:10:06;;;;;;;6.97;2.80;;;;;;;17.41;51.91;101375.59;7400611;19;20022;-66
2022/07/19 03:12:35;;;;;;;6.07;2.15;;;;;;;17.37;52.33;101382.78;7400003;19;20032;-66
2022/07/19 03:15:03;;;;;;;4.40;2.60;;;;;;;17.33;52.23;101380.34;7396625;19;20603;-66
2022/07/19 03:17:32;;;;;;;5.18;2.88;;;;;;;17.30;52.25;101380.47;7399324;19;20024;-66
2022/07/19 03:20:03;;;;;;;5.38;2.55;;;;;;;17.26;52.22;101380.59;7397767;19;20018;-66
2022/07/19 03:22:31;;;;;;;5.40;2.75;;;;;;;17.24;51.84;101378.94;7398212;19;20029;-67
2022/07/19 03:25:00;;;;;;;3.55;2.72;;;;;;;17.22;51.96;101378.97;7397643;19;20015;-67
2022/07/19 03:27:28;;;;;;;4.40;2.83;;;;;;;17.17;52.51;101361.53;7398589;19;20014;-67
2022/07/19 03:29:57;;;;;;;4.40;2.85;;;;;;;17.20;52.61;101374.66;7399493;19;20027;-67
2022/07/19 03:32:25;;;;;;;5.05;2.83;;;;;;;17.19;52.42;101372.94;7396682;19;20034;-66
2022/07/19 03:34:54;;;;;;;6.20;2.72;;;;;;;17.16;52.59;101368.63;7396620;19;20019;-67
2022/07/19 03:37:25;;;;;;;5.43;2.92;;;;;;;17.15;52.65;101373.97;7396652;19;20014;-66
2022/07/19 03:39:53;;;;;;;4.78;3.05;;;;;;;17.13;52.88;101375.84;7398529;19;20022;-67
2022/07/19 03:42:22;;;;;;;10.00;3.25;;;;;;;17.12;53.09;101374.09;7398536;19;20027;-67
2022/07/19 03:44:50;;;;;;;4.82;2.75;;;;;;;17.08;52.79;101376.00;7399884;19;20082;-67
2022/07/19 03:47:19;;;;;;;6.55;3.25;;;;;;;17.08;53.16;101374.19;7398524;19;20082;-67
2022/07/19 03:49:47;;;;;;;5.70;3.53;;;;;;;17.07;53.04;101375.16;7396532;19;20018;-67
2022/07/19 03:52:16;;;;;;;9.32;3.90;;;;;;;17.06;53.17;101373.41;7399263;19;20011;-67
2022/07/19 03:54:47;;;;;;;11.02;4.28;;;;;;;17.05;53.71;101376.13;7396111;19;20481;-66
2022/07/19 03:57:15;;;;;;;5.35;3.22;;;;;;;17.04;53.46;101372.59;7396688;19;20092;-66
2022/07/19 03:59:44;;;;;;;5.82;2.88;;;;;;;17.04;53.71;101383.22;7398519;19;20014;-67
2022/07/19 04:02:13;;;;;;;5.25;2.95;;;;;;;17.03;53.55;101376.16;7396434;19;20080;-67
2022/07/19 04:04:41;;;;;;;3.30;2.40;;;;;;;17.02;53.01;101371.81;7396249;19;20014;-67
2022/07/19 04:07:10;;;;;;;9.23;2.97;;;;;;;17.03;52.85;101373.53;7395477;19;20025;-67
2022/07/19 04:09:38;;;;;;;9.75;3.15;;;;;;;17.04;52.84;101372.59;7395317;19;20015;-67
2022/07/19 04:12:10;;;;;;;7.38;2.78;;;;;;;17.06;53.19;101375.19;7397372;19;20041;-67
2022/07/19 04:14:38;;;;;;;9.27;2.80;;;;;;;17.08;52.89;101376.00;7397718;19;20485;-67
2022/07/19 04:17:07;;;;;;;8.98;4.05;;;;;;;17.08;52.83;101374.19;7395657;19;20022;-67
2022/07/19 04:19:35;;;;;;;7.25;3.42;;;;;;;17.09;52.99;101367.97;7394641;19;20083;-67
2022/07/19 04:22:04;;;;;;;9.38;2.97;;;;;;;17.14;53.42;101372.25;7394861;19;20007;-67
2022/07/19 04:24:32;;;;;;;8.40;3.10;;;;;;;17.17;53.42;101374.78;7397948;19;20031;-67
2022/07/19 04:27:01;;;;;;;12.02;3.22;;;;;;;17.20;53.31;101377.28;7394965;19;20083;-67
2022/07/19 04:29:32;;;;;;;8.25;3.10;;;;;;;17.21;53.11;101373.72;7395195;19;20082;-67
2022/07/19 04:32:00;;;;;;;10.00;3.10;;;;;;;17.23;53.11;101375.41;7395291;19;20036;-67
2022/07/19 04:34:29;;;;;;;9.25;3.33;;;;;;;17.26;53.14;101377.94;7397123;19;20082;-67
2022/07/19 04:36:57;;;;;;;10.07;2.85;;;;;;;17.29;53.03;101371.66;7395163;19;20019;-67
2022/07/19 04:39:26;;;;;;;6.15;2.78;;;;;;;17.33;53.12;101375.91;7398131;19;20082;-67
2022/07/19 04:41:54;;;;;;;8.93;2.97;;;;;;;17.37;53.03;101379.28;7397195;19;20022;-66
2022/07/19 04:44:23;;;;;;;5.22;2.65;;;;;;;17.42;52.85;101379.97;7397000;19;20019;-66
2022/07/19 04:46:54;;;;;;;10.65;3.13;;;;;;;17.46;52.74;101383.38;7396734;19;20022;-66
2022/07/19 04:49:22;;;;;;;4.53;2.60;;;;;;;17.49;52.69;101372.63;7395998;19;20074;-66
2022/07/19 04:51:51;;;;;;;7.13;2.45;;;;;;;17.54;52.88;101381.25;7396081;19;20524;-67
2022/07/19 04:54:19;;;;;;;12.60;3.38;;;;;;;17.59;52.48;101384.56;7396784;19;20380;-67
2022/07/19 04:56:48;;;;;;;5.47;2.28;;;;;;;17.63;52.65;101386.19;7396485;19;20018;-66
2022/07/19 04:59:16;;;;;;;5.10;2.58;;;;;;;17.69;52.32;101382.41;7396033;19;20018;-67
2022/07/19 05:01:45;;;;;;;6.70;2.45;;;;;;;17.74;52.40;101393.69;7396290;19;20086;-67
2022/07/19 05:04:16;;;;;;;5.72;2.35;;;;;;;17.81;52.60;101389.03;7396505;19;20086;-67
2022/07/19 05:06:45;;;;;;;7.50;2.47;;;;;;;17.86;52.22;101387.88;7396035;19;20038;-67
2022/07/19 05:09:14;;;;;;;7.57;3.25;;;;;;;17.92;52.29;101390.28;7394279;19;20019;-67
2022/07/19 05:11:42;;;;;;;4.53;2.75;;;;;;;17.99;52.42;101395.38;7395649;19;20090;-67
2022/07/19 05:14:11;;;;;;;6.50;2.47;;;;;;;18.06;52.15;101395.03;7395618;19;20528;-67
2022/07/19 05:17:01;;;;;;;6.88;2.72;;;;;;;18.13;52.18;101385.00;7395389;19;20368;-67
2022/07/19 05:19:33;;;;;;;6.18;2.33;;;;;;;18.20;52.12;101390.94;7395407;19;20028;-67
2022/07/19 05:22:14;;;;;;;3.13;2.00;;;;;;;18.29;52.17;101389.66;7394528;19;20419;-67
2022/07/19 05:24:43;;;;;;;7.68;2.50;;;;;;;18.36;52.08;101386.66;7395164;19;20027;-67
2022/07/19 05:27:11;;;;;;;8.52;2.80;;;;;;;18.44;51.97;101386.31;7395182;19;20018;-67
2022/07/19 05:29:40;;;;;;;6.63;2.75;;;;;;;18.52;52.04;101392.16;7394210;19;20588;-67
2022/07/19 05:32:08;;;;;;;4.40;2.45;;;;;;;18.62;51.65;101389.09;7393558;19;20027;-67
2022/07/19 05:34:40;;;;;;;5.40;2.58;;;;;;;18.71;51.19;101386.00;7393599;19;20086;-67
2022/07/19 05:37:09;;;;;;;5.32;2.30;;;;;;;18.80;51.10;101384.72;7393845;19;20018;-67
2022/07/19 05:39:37;;;;;;;9.40;2.67;;;;;;;18.89;50.86;101386.94;7392551;19;20506;-67
2022/07/19 05:42:06;;;;;;;3.97;2.17;;;;;;;18.99;50.50;101385.63;7394092;19;20502;-67
2022/07/19 05:44:34;;;;;;;3.30;2.00;;;;;;;19.10;50.51;101387.78;7393046;19;20027;-67
2022/07/19 05:47:03;;;;;;;5.75;2.17;;;;;;;19.20;50.28;101385.53;7393272;19;20019;-67
2022/07/19 05:49:31;;;;;;;4.47;2.38;;;;;;;19.29;50.19;101387.75;7393051;19;20397;-68
2022/07/19 05:52:02;;;;;;;6.82;2.20;;;;;;;19.39;50.17;101382.00;7394007;19;20549;-66
2022/07/19 05:54:31;;;;;;;9.10;2.38;;;;;;;19.49;49.87;101389.44;7394834;19;20039;-66
2022/07/19 05:56:59;;;;;;;6.68;2.30;;;;;;;19.60;50.00;101393.38;7393719;19;20086;-66
2022/07/19 05:59:28;;;;;;;4.00;1.98;;;;;;;19.70;49.41;101386.66;7392494;19;20081;-65
2022/07/19 06:01:56;;;;;;;3.85;2.05;;;;;;;19.81;49.57;101394.09;7392531;19;20026;-66
2022/07/19 06:04:25;;;;;;;3.40;1.58;;;;;;;19.91;49.00;101389.22;7394533;19;20024;-66
2022/07/19 06:06:53;;;;;;;3.42;2.05;;;;;;;19.97;48.45;101384.44;7393232;19;20432;-65
2022/07/19 06:09:24;;;;;;;3.90;2.17;;;;;;;20.12;48.34;101389.91;7392883;19;20082;-67
2022/07/19 06:11:53;;;;;;;6.25;1.90;;;;;;;20.22;47.74;101395.63;7392773;19;20035;-66
2022/07/19 06:14:21;;;;;;;4.22;1.85;;;;;;;20.32;47.58;101399.50;7394375;19;20014;-67
2022/07/19 06:16:50;;;;;;;3.65;1.88;;;;;;;20.43;47.66;101401.63;7392961;19;20014;-67
2022/07/19 06:19:19;;;;;;;5.38;2.10;;;;;;;20.53;46.97;101408.19;7391264;19;20011;-66
2022/07/19 06:21:47;;;;;;;4.13;2.58;;;;;;;20.63;46.91;101400.56;7393050;19;20027;-66
2022/07/19 06:24:16;;;;;;;2.72;1.90;;;;;;;20.71;47.04;101402.84;7391871;19;20018;-67
2022/07/19 06:26:47;;;;;;;4.20;2.10;;;;;;;20.81;46.31;101398.72;7391565;19;20078;-66
2022/07/19 06:29:15;;;;;;;4.53;1.88;;;;;;;20.89;46.88;101401.84;7393152;19;20070;-67
2022/07/19 06:31:44;;;;;;;5.10;2.50;;;;;;;20.96;46.65;101397.88;7393813;19;20019;-66
2022/07/19 06:34:12;;;;;;;4.07;2.17;;;;;;;21.05;46.47;101399.19;7393884;19;20406;-66
2022/07/19 06:36:41;;;;;;;5.55;2.00;;;;;;;21.14;46.04;101398.69;7392032;19;20355;-66
2022/07/19 06:39:09;;;;;;;5.28;1.90;;;;;;;21.23;46.46;101399.09;7393340;19;20042;-66
2022/07/19 06:41:38;;;;;;;3.75;1.63;;;;;;;21.31;46.00;101395.06;7390926;19;20010;-66
2022/07/19 06:44:10;;;;;;;3.75;1.98;;;;;;;21.41;45.39;101406.06;7393109;19;20010;-66
2022/07/19 06:46:38;;;;;;;3.63;1.98;;;;;;;21.49;45.78;101397.63;7393814;19;20035;-66
2022/07/19 06:49:07;;;;;;;3.92;1.73;;;;;;;21.59;45.26;101398.00;7391166;19;20083;-66
2022/07/19 06:51:35;;;;;;;6.50;2.28;;;;;;;21.67;45.08;101397.53;7395713;19;20539;-66
2022/07/19 06:54:03;;;;;;;5.00;1.80;;;;;;;21.76;44.31;101395.22;7397348;19;20022;-67
2022/07/19 06:56:32;;;;;;;4.32;1.85;;;;;;;21.86;44.15;101394.66;7397626;19;20014;-67
2022/07/19 06:59:00;;;;;;;3.25;2.40;;;;;;;21.94;44.41;101397.75;7397797;19;20015;-66
2022/07/19 07:01:32;;;;;;;3.42;1.85;;;;;;;22.03;44.10;101404.34;7400676;19;20078;-66
2022/07/19 07:04:00;;;;;;;4.25;2.13;;;;;;;22.11;44.03;101396.72;7400653;19;20074;-67
2022/07/19 07:06:28;;;;;;;4.40;2.20;;;;;;;22.21;43.57;101408.56;7397245;19;20090;-67
2022/07/19 07:08:57;;;;;;;7.20;2.10;;;;;;;22.29;43.35;101408.97;7397247;19;20019;-67
2022/07/19 07:11:25;;;;;;;4.75;2.22;;;;;;;22.37;43.28;101400.53;7397063;19;20010;-66
2022/07/19 07:13:54;;;;;;;5.35;1.88;;;;;;;22.47;43.31;101407.97;7399042;19;20027;-67
2022/07/19 07:16:23;;;;;;;3.78;1.70;;;;;;;22.55;43.00;101403.88;7396951;19;20014;-67
2022/07/19 07:18:54;;;;;;;5.88;2.20;;;;;;;22.65;43.21;101409.50;7396536;19;20031;-66
2022/07/19 07:21:22;;;;;;;5.32;2.03;;;;;;;22.76;43.18;101408.81;7396166;19;20524;-68
2022/07/19 07:23:51;;;;;;;4.00;2.03;;;;;;;22.85;42.82;101404.72;7396399;19;20028;-67
2022/07/19 07:26:20;;;;;;;5.70;2.20;;;;;;;22.93;43.06;101400.59;7399379;19;20035;-67
2022/07/19 07:28:48;;;;;;;3.50;2.00;;;;;;;23.02;42.47;101404.50;7396255;19;20031;-67
2022/07/19 07:31:17;;;;;;;4.75;2.10;;;;;;;23.13;42.60;101398.47;7399132;19;20038;-67
2022/07/19 07:33:45;;;;;;;6.68;2.83;;;;;;;23.23;42.00;101396.94;7398885;19;20044;-67
2022/07/19 07:36:17;;;;;;;3.60;2.15;;;;;;;23.33;41.66;101393.66;7398763;19;20391;-66
2022/07/19 07:38:45;;;;;;;3.58;2.28;;;;;;;23.43;41.91;101392.97;7397345;19;20019;-66
2022/07/19 07:41:14;;;;;;;4.75;2.33;;;;;;;23.52;41.68;101388.81;7396672;19;20022;-66
2022/07/19 07:43:42;;;;;;;6.00;2.45;;;;;;;23.61;41.61;101381.09;7396567;19;20022;-66
2022/07/19 07:46:11;;;;;;;4.22;2.45;;;;;;;23.74;40.95;101374.81;7398430;19;20034;-66
2022/07/19 07:48:39;;;;;;;4.80;1.92;;;;;;;23.86;41.23;101380.31;7396297;19;20092;-67
2022/07/19 07:51:08;;;;;;;3.33;1.92;;;;;;;23.95;40.68;101379.75;7396142;19;20019;-66
2022/07/19 07:53:39;;;;;;;5.18;2.10;;;;;;;24.05;40.59;101374.59;7399053;19;20018;-66
2022/07/19 07:56:08;;;;;;;3.35;1.98;;;;;;;24.15;40.18;101375.69;7396491;19;20018;-66
2022/07/19 07:58:37;;;;;;;7.93;2.60;;;;;;;24.27;40.07;101365.91;7396282;19;20019;-67
2022/07/19 08:01:06;;;;;;;3.13;1.80;;;;;;;24.36;39.47;101372.47;7397381;19;20011;-66
2022/07/19 08:03:34;;;;;;;4.53;1.70;;;;;;;24.46;38.94;101373.53;7394226;19;20022;-67
2022/07/19 08:06:03;;;;;;;2.47;1.70;;;;;;;24.56;38.83;101371.06;7398171;19;20031;-66
2022/07/19 08:08:31;;;;;;;4.68;1.90;;;;;;;24.66;38.25;101374.81;7395434;19;20086;-66
2022/07/19 08:11:03;;;;;;;4.80;1.83;;;;;;;24.78;38.10;101373.09;7395757;19;20067;-67
2022/07/19 08:13:32;;;;;;;2.58;1.75;;;;;;;24.89;37.83;101381.19;7397781;19;20489;-66
2022/07/19 08:16:00;;;;;;;7.75;2.80;;;;;;;25.03;37.28;101377.53;7395774;19;20039;-66
2022/07/19 08:18:29;;;;;;;4.43;1.70;;;;;;;25.15;36.86;101374.91;7395864;19;20019;-66
2022/07/19 08:20:57;;;;;;;4.95;2.20;;;;;;;25.25;36.48;101380.44;7397281;19;20035;-67
2022/07/19 08:23:26;;;;;;;8.40;2.33;;;;;;;25.35;35.88;101382.34;7394787;19;20086;-66
2022/07/19 08:25:55;;;;;;;4.55;2.00;;;;;;;25.46;35.56;101381.56;7394481;19;20019;-67
2022/07/19 08:28:26;;;;;;;3.50;1.80;;;;;;;25.55;35.55;101379.19;7395468;19;20026;-67
2022/07/19 08:30:55;;;;;;;3.05;1.85;;;;;;;25.63;35.79;101374.94;7395133;19;20015;-66
2022/07/19 08:33:23;;;;;;;2.80;2.08;;;;;;;25.73;35.05;101377.78;7395359;19;20021;-66
2022/07/19 08:35:52;;;;;;;4.30;2.20;;;;;;;25.84;35.23;101376.94;7397002;19;20082;-66
2022/07/19 08:38:20;;;;;;;6.72;2.20;;;;;;;25.93;35.42;101378.06;7394579;19;20506;-67
2022/07/19 08:40:53;;;;;;;4.63;1.73;;;;;;;26.04;34.74;101372.72;7394279;19;20487;-67
2022/07/19 08:43:22;;;;;;;5.18;1.90;;;;;;;26.13;34.64;101366.66;7395142;19;20018;-67
2022/07/19 08:45:53;;;;;;;4.32;2.30;;;;;;;26.25;33.74;101366.66;7395162;19;20042;-67
2022/07/19 08:48:22;;;;;;;5.13;2.00;;;;;;;26.34;33.13;101372.19;7395064;19;20019;-66
2022/07/19 08:50:54;;;;;;;3.65;1.63;;;;;;;26.45;33.03;101365.09;7395108;19;20015;-68
2022/07/19 08:53:24;;;;;;;5.45;1.95;;;;;;;26.53;32.82;101367.16;7396594;19;20006;-67
2022/07/19 08:55:53;;;;;;;4.60;1.80;;;;;;;26.63;32.66;101369.00;7394794;19;20362;-67
2022/07/19 08:58:19;;;;;;;4.95;1.77;;;;;;;26.74;31.62;101361.94;7394992;19;20031;-67
2022/07/19 09:00:47;;;;;;;2.72;1.92;;;;;;;26.83;31.30;101369.28;7394691;19;20010;-67
2022/07/19 09:03:18;;;;;;;4.15;1.75;;;;;;;26.91;30.98;101364.13;7394389;19;20018;-67
2022/07/19 09:05:47;;;;;;;6.72;2.30;;;;;;;27.01;31.00;101361.53;7395176;19;20022;-67
2022/07/19 09:08:18;;;;;;;5.97;1.80;;;;;;;27.12;30.75;101356.13;7394070;19;20019;-67
2022/07/19 09:11:14;;;;;;;4.70;2.20;;;;;;;27.21;30.89;101354.50;7394053;19;20018;-67
2022/07/19 09:13:38;;;;;;;4.88;1.70;;;;;;;27.32;30.76;101361.66;7394331;19;20488;-67
2022/07/19 09:16:07;;;;;;;5.13;2.05;;;;;;;27.41;30.54;101352.88;7393477;19;20082;-67
2022/07/19 09:18:39;;;;;;;2.35;1.80;;;;;;;27.52;29.94;101364.59;7393975;19;20047;-67
2022/07/19 09:21:09;;;;;;;6.05;1.60;;;;;;;27.61;29.66;101351.19;7394803;19;20021;-67
2022/07/19 09:23:39;;;;;;;5.43;1.90;;;;;;;27.76;29.39;101353.56;7393627;19;20517;-67
2022/07/19 09:26:08;;;;;;;3.50;1.73;;;;;;;27.87;28.92;101358.88;7396021;19;20015;-65
2022/07/19 09:28:38;;;;;;;3.17;1.80;;;;;;;27.98;28.78;101359.78;7394026;19;20018;-66
2022/07/19 09:31:09;;;;;;;5.07;1.80;;;;;;;28.08;28.21;101356.22;7394383;19;20015;-68
2022/07/19 09:33:46;;;;;;;2.53;1.60;;;;;;;28.22;27.64;101362.22;7394500;19;20037;-66
2022/07/19 09:36:16;;;;;;;5.50;1.83;;;;;;;28.32;27.79;101355.06;7394968;19;20056;-66
2022/07/19 09:38:44;;;;;;;7.38;2.13;;;;;;;28.42;27.83;101360.47;7393397;19;20038;-67
2022/07/19 09:41:15;;;;;;;6.57;2.28;;;;;;;28.51;27.36;101356.13;7394442;19;20014;-67
2022/07/19 09:43:55;;;;;;;4.05;2.75;;;;;;;28.59;26.59;101353.59;7394062;19;20035;-67
2022/07/19 09:46:31;;;;;;;7.88;5.18;;;;;;;28.68;26.77;101355.50;7395228;19;20022;-67
2022/07/19 09:49:12;;;;;;;3.38;1.90;;;;;;;28.78;27.08;101352.84;7392922;19;20031;-67
2022/07/19 09:51:42;;;;;;;4.50;1.60;;;;;;;28.87;26.97;101351.16;7393805;19;20423;-67
2022/07/19 09:54:12;;;;;;;3.58;1.48;;;;;;;28.97;26.86;101348.47;7395071;19;20100;-67
2022/07/19 09:56:43;;;;;;;3.80;1.83;;;;;;;29.06;26.68;101344.94;7393388;19;20023;-67
2022/07/19 09:59:12;;;;;;;3.53;2.22;;;;;;;29.17;26.46;101346.63;7393192;19;20032;-67
2022/07/19 10:01:41;;;;;;;3.28;1.90;;;;;;;29.29;26.14;101336.59;7392555;19;20506;-67
2022/07/19 10:04:14;;;;;;;4.30;2.50;;;;;;;29.41;25.85;101338.16;7394774;19;20039;-67
2022/07/19 10:06:44;;;;;;;5.00;1.88;;;;;;;29.50;25.61;101333.75;7392063;19;20014;-67
2022/07/19 10:09:14;;;;;;;5.50;1.60;;;;;;;29.55;25.44;101335.03;7393919;19;20526;-67
2022/07/19 10:11:44;;;;;;;4.75;1.83;;;;;;;29.67;25.24;101333.00;7392478;19;20011;-67
2022/07/19 10:14:13;;;;;;;3.08;1.50;;;;;;;29.80;25.05;101339.97;7394656;19;20022;-67
2022/07/19 10:16:58;;;;;;;4.15;1.67;;;;;;;29.89;24.28;101326.47;7395291;19;20018;-67
2022/07/19 10:19:37;;;;;;;3.38;1.48;;;;;;;30.00;24.40;101333.56;7392795;19;20022;-67
2022/07/19 10:22:06;;;;;;;4.13;1.83;;;;;;;30.07;24.44;101328.41;7393064;19;20478;-67
2022/07/19 10:24:50;;;;;;;1.92;1.15;;;;;;;30.15;24.37;101320.38;7393877;19;20027;-68
2022/07/19 10:27:20;;;;;;;3.33;1.65;;;;;;;30.20;24.36;101317.25;7399875;19;20014;-67
2022/07/19 10:29:49;;;;;;;6.30;1.90;;;;;;;30.26;24.17;101318.53;7401267;19;20015;-67
2022/07/19 10:32:18;;;;;;;4.95;1.60;;;;;;;30.30;24.37;101312.63;7397857;19;20505;-67
2022/07/19 10:34:51;;;;;;;3.03;1.70;;;;;;;30.35;23.89;101313.03;7398533;19;20026;-67
2022/07/19 10:37:42;;;;;;;3.80;1.67;;;;;;;30.41;23.92;101308.03;7398129;19;20481;-67
2022/07/19 10:40:12;;;;;;;1.50;1.27;;;;;;;30.45;24.18;101302.16;7398947;19;20022;-66
2022/07/19 10:43:08;;;;;;;4.82;1.75;;;;;;;30.50;23.65;101304.47;7400824;19;20087;-67
2022/07/19 10:45:37;;;;;;;2.72;1.25;;;;;;;30.56;23.87;101298.47;7402160;19;20018;-68
2022/07/19 10:48:14;;;;;;;2.63;1.40;;;;;;;30.63;23.08;101295.97;7398148;19;20074;-67
2022/07/19 10:50:59;;;;;;;2.08;1.60;;;;;;;30.77;23.10;101289.19;7400408;19;20027;-67
2022/07/19 10:54:05;;;;;;;3.00;1.50;;;;;;;30.90;22.33;101284.28;7400757;19;20367;-67
2022/07/19 10:56:43;;;;;;;2.65;1.50;;;;;;;31.00;22.79;101281.47;7401248;19;20022;-69
2022/07/19 10:59:13;;;;;;;3.40;1.20;;;;;;;31.07;22.61;101282.59;7397771;19;20498;-67
2022/07/19 11:02:05;;;;;;;2.85;1.63;;;;;;;31.09;21.28;101274.28;7398430;19;20039;-67
2022/07/19 11:04:35;;;;;;;4.35;1.70;;;;;;;31.22;22.35;101280.19;7400875;19;20363;-67
2022/07/19 11:07:21;;;;;;;2.28;1.67;;;;;;;31.34;20.50;101281.66;7400390;19;20015;-67
2022/07/19 11:09:52;;;;;;;3.33;1.90;;;;;;;31.45;21.56;101279.69;7399720;19;20378;-67
2022/07/19 11:12:33;;;;;;;3.33;1.50;;;;;;;31.51;20.49;101269.06;7397903;19;20028;-67
2022/07/19 11:15:06;;;;;;;5.45;2.03;;;;;;;31.60;21.38;101269.97;7400216;19;20022;-67
2022/07/19 11:17:34;;;;;;;5.80;2.00;;;;;;;31.72;21.19;101272.44;7397648;19;20023;-68
2022/07/19 11:20:09;;;;;;;4.35;2.08;;;;;;;31.79;20.52;101268.09;7397950;19;20082;-68
2022/07/19 11:22:56;;;;;;;4.35;1.63;;;;;;;31.91;20.95;101265.94;7393827;19;20007;-67
2022/07/19 11:25:30;;;;;;;6.78;2.38;;;;;;;32.00;20.45;101260.41;7398809;19;20018;-67
2022/07/19 11:27:59;;;;;;;2.85;1.95;;;;;;;32.12;20.81;101254.69;7395761;19;20369;-67
2022/07/19 11:30:30;;;;;;;4.00;1.58;;;;;;;32.24;20.69;101253.41;7398390;19;20028;-67
2022/07/19 11:33:00;;;;;;;2.22;1.65;;;;;;;32.39;20.40;101256.34;7399031;19;20366;-67
2022/07/19 11:35:30;;;;;;;4.80;1.75;;;;;;;32.51;20.02;101259.59;7396513;19;20418;-67
2022/07/19 11:38:02;;;;;;;3.83;1.40;;;;;;;32.64;19.73;101246.41;7396008;19;20082;-67